Terminal Aerodrome Forecast
Issued by NWS Sterling, VA

Current Version | Previous Version | Graphics & Text | Print | Product List | Glossary On
Versions: 1 2 3 4 5 6 7 8 9 10 11 12 13 14 15 16 17 18 19 20 21 22 23 24 25 26 27
000
FTUS41 KLWX 012333
TAFIAD
TAF
KIAD 012333Z 0200/0306 VRB04KT P6SM SCT200
     FM020900 VRB03KT 5SM BR BKN080
     FM021200 VRB04KT P6SM SCT050 BKN080 BKN200
     FM022000 VRB04KT P6SM BKN050 BKN120=

USA.gov is the U.S. government's official web portal to all federal, state and local government web resources and services.